createdAt,value
2023-01-11T00:00:56.645Z,9.54
2023-01-11T00:03:30.726Z,9.55
2023-01-11T00:06:04.789Z,9.63
2023-01-11T00:08:37.604Z,9.80
2023-01-11T00:11:15.698Z,9.84
2023-01-11T00:13:48.261Z,9.76
2023-01-11T00:16:20.837Z,9.73
2023-01-11T00:18:53.391Z,9.69
2023-01-11T00:21:26.720Z,9.72
2023-01-11T00:23:59.537Z,9.82
2023-01-11T00:26:32.142Z,9.88
2023-01-11T00:29:04.664Z,10.02
2023-01-11T00:31:37.141Z,9.97
2023-01-11T00:34:10.017Z,10.07
2023-01-11T00:36:42.583Z,9.82
2023-01-11T00:39:15.157Z,9.82
2023-01-11T00:42:06.252Z,9.93
2023-01-11T00:44:57.515Z,9.81
2023-01-11T00:47:48.927Z,9.96
2023-01-11T00:50:21.413Z,9.89
2023-01-11T00:52:53.975Z,9.84
2023-01-11T00:55:27.688Z,9.94
2023-01-11T00:58:01.269Z,9.73
2023-01-11T01:00:33.867Z,9.81
2023-01-11T01:03:06.351Z,9.80
2023-01-11T01:05:39.246Z,9.70
2023-01-11T01:08:11.775Z,9.90
2023-01-11T01:10:44.246Z,9.88
2023-01-11T01:13:35.291Z,9.85
2023-01-11T01:16:08.080Z,9.80
2023-01-11T01:18:40.665Z,9.93
2023-01-11T01:21:13.199Z,9.85
2023-01-11T01:23:45.800Z,9.80
2023-01-11T01:26:18.416Z,9.95
2023-01-11T01:28:51.196Z,9.95
2023-01-11T01:31:23.968Z,10.04
2023-01-11T01:33:57.219Z,9.99
2023-01-11T01:36:29.723Z,9.90
2023-01-11T01:39:05.219Z,10.17
2023-01-11T01:41:38.283Z,10.15
2023-01-11T01:44:57.835Z,10.17
2023-01-11T01:47:40.223Z,10.16
2023-01-11T01:50:32.081Z,10.14
2023-01-11T01:53:15.993Z,10.22
2023-01-11T01:55:57.543Z,10.28
2023-01-11T01:58:43.493Z,10.22
2023-01-11T02:01:36.587Z,10.23
2023-01-11T02:04:31.645Z,10.19
2023-01-11T02:07:16.288Z,10.30
2023-01-11T02:09:59.107Z,10.36
2023-01-11T02:13:00.272Z,10.32
2023-01-11T02:15:33.035Z,10.32
2023-01-11T02:18:12.988Z,10.28
2023-01-11T02:21:34.433Z,10.38
2023-01-11T02:24:41.815Z,10.43
2023-01-11T02:27:51.470Z,10.47
2023-01-11T02:30:44.465Z,10.45
2023-01-11T02:33:49.411Z,10.63
2023-01-11T02:36:46.068Z,10.56
2023-01-11T02:39:45.209Z,10.49
2023-01-11T02:42:55.745Z,10.63
2023-01-11T02:45:41.422Z,10.53
2023-01-11T02:48:21.841Z,10.61
2023-01-11T02:51:12.520Z,10.48
2023-01-11T02:53:54.567Z,10.63
2023-01-11T02:56:33.991Z,10.61
2023-01-11T02:59:13.500Z,10.69
2023-01-11T03:01:55.459Z,10.74
2023-01-11T03:04:37.310Z,10.60
2023-01-11T03:07:15.657Z,10.86
2023-01-11T03:10:05.672Z,10.79
2023-01-11T03:13:20.830Z,10.73
2023-01-11T03:16:08.542Z,10.71
2023-01-11T03:19:17.654Z,10.69
2023-01-11T03:22:12.007Z,10.90
2023-01-11T03:25:03.767Z,10.75
2023-01-11T03:27:53.253Z,10.81
2023-01-11T03:30:50.731Z,10.92
2023-01-11T03:33:33.909Z,10.97
2023-01-11T03:36:34.219Z,11.00
2023-01-11T03:39:33.782Z,10.82
2023-01-11T03:42:09.784Z,10.81
2023-01-11T03:44:46.810Z,10.87
2023-01-11T03:47:25.728Z,10.85
2023-01-11T03:50:11.108Z,11.05
2023-01-11T03:52:45.477Z,10.92
2023-01-11T03:55:18.458Z,10.86
2023-01-11T03:57:52.810Z,10.91
2023-01-11T04:00:28.370Z,11.01
2023-01-11T04:03:01.057Z,10.95
2023-01-11T04:05:36.367Z,10.90
2023-01-11T04:08:08.906Z,10.96
2023-01-11T04:10:41.598Z,10.88
2023-01-11T04:13:14.096Z,10.96
2023-01-11T04:15:46.782Z,10.96
2023-01-11T04:18:19.380Z,11.04
2023-01-11T04:20:51.966Z,10.91
2023-01-11T04:23:24.607Z,10.99
2023-01-11T04:25:57.199Z,11.03
2023-01-11T04:28:29.715Z,11.12
2023-01-11T04:31:02.339Z,11.09
2023-01-11T04:33:34.912Z,11.10
2023-01-11T04:36:11.678Z,11.03
2023-01-11T04:38:44.246Z,11.05
2023-01-11T04:41:39.147Z,11.13
2023-01-11T04:44:11.752Z,11.06
2023-01-11T04:46:44.443Z,11.18
2023-01-11T04:49:16.965Z,11.24
2023-01-11T04:51:49.548Z,11.08
2023-01-11T04:54:22.294Z,11.13
2023-01-11T04:56:54.969Z,11.12
2023-01-11T04:59:27.588Z,11.07
2023-01-11T05:02:00.101Z,11.22
2023-01-11T05:04:33.262Z,11.38
2023-01-11T05:07:07.955Z,11.33
2023-01-11T05:09:40.933Z,11.22
2023-01-11T05:12:15.869Z,11.24
2023-01-11T05:14:48.499Z,11.09
2023-01-11T05:17:23.518Z,11.08
2023-01-11T05:19:57.423Z,11.20
2023-01-11T05:22:30.119Z,11.14
2023-01-11T05:25:03.004Z,11.16
2023-01-11T05:27:35.912Z,11.15
2023-01-11T05:30:09.856Z,11.21
2023-01-11T05:32:42.576Z,11.20
2023-01-11T05:35:15.218Z,11.11
2023-01-11T05:37:49.979Z,11.12
2023-01-11T05:40:22.769Z,11.10
2023-01-11T05:42:55.366Z,11.19
2023-01-11T05:45:32.240Z,11.17
2023-01-11T05:48:05.139Z,11.42
2023-01-11T05:50:37.725Z,11.15
2023-01-11T05:53:10.837Z,10.96
2023-01-11T05:55:58.542Z,11.01
2023-01-11T05:58:31.097Z,11.28
2023-01-11T06:01:05.482Z,11.08
2023-01-11T06:03:38.045Z,10.93
2023-01-11T06:06:10.807Z,10.88
2023-01-11T06:08:43.935Z,10.80
2023-01-11T06:11:16.587Z,10.63
2023-01-11T06:13:49.280Z,10.56
2023-01-11T06:16:22.499Z,10.59
2023-01-11T06:18:55.386Z,10.56
2023-01-11T06:21:27.950Z,10.63
2023-01-11T06:24:00.625Z,10.42
2023-01-11T06:26:33.328Z,10.55
2023-01-11T06:29:05.872Z,10.53
2023-01-11T06:31:38.498Z,10.31
2023-01-11T06:34:11.585Z,10.28
2023-01-11T06:36:44.069Z,10.52
2023-01-11T06:39:16.662Z,10.32
2023-01-11T06:41:49.200Z,10.26
2023-01-11T06:44:21.841Z,10.57
2023-01-11T06:46:54.420Z,10.25
2023-01-11T06:49:27.081Z,10.26
2023-01-11T06:51:59.580Z,10.45
2023-01-11T06:54:32.130Z,10.35
2023-01-11T06:57:04.678Z,10.17
2023-01-11T06:59:39.452Z,10.12
2023-01-11T07:02:12.269Z,10.32
2023-01-11T07:04:44.937Z,10.25
2023-01-11T07:07:19.200Z,10.16
2023-01-11T07:09:55.844Z,10.12
2023-01-11T07:12:28.425Z,10.17
2023-01-11T07:15:01.407Z,10.12
2023-01-11T07:17:37.989Z,10.10
2023-01-11T07:20:11.439Z,9.85
2023-01-11T07:22:47.209Z,9.76
2023-01-11T07:25:19.736Z,9.86
2023-01-11T07:28:00.647Z,9.95
2023-01-11T07:30:55.659Z,9.98
2023-01-11T07:33:29.136Z,9.79
2023-01-11T07:36:05.613Z,9.92
2023-01-11T07:38:39.551Z,9.72
2023-01-11T07:41:31.054Z,9.65
2023-01-11T07:44:03.865Z,9.69
2023-01-11T07:46:36.497Z,9.57
2023-01-11T07:49:09.373Z,9.58
2023-01-11T07:51:42.465Z,9.59
2023-01-11T07:54:15.086Z,9.39
2023-01-11T07:56:47.618Z,9.52
2023-01-11T07:59:20.178Z,9.43
2023-01-11T08:01:53.015Z,9.53
2023-01-11T08:04:25.824Z,9.33
2023-01-11T08:06:58.424Z,9.27
2023-01-11T08:09:31.967Z,9.24
2023-01-11T08:12:23.891Z,9.28
2023-01-11T08:14:56.468Z,9.44
2023-01-11T08:17:29.117Z,9.41
2023-01-11T08:20:01.760Z,9.42
2023-01-11T08:22:34.444Z,9.12
2023-01-11T08:25:07.644Z,9.38
2023-01-11T08:27:40.799Z,9.21
2023-01-11T08:30:14.447Z,9.02
2023-01-11T08:32:47.068Z,8.95
2023-01-11T08:35:22.046Z,9.01
2023-01-11T08:37:54.619Z,9.20
2023-01-11T08:40:27.524Z,9.00
2023-01-11T08:43:00.050Z,9.04
2023-01-11T08:45:34.072Z,9.04
2023-01-11T08:48:06.887Z,8.95
2023-01-11T08:50:39.391Z,8.89
2023-01-11T08:53:12.717Z,8.96
2023-01-11T08:55:48.284Z,8.96
2023-01-11T08:58:21.666Z,8.71
2023-01-11T09:01:00.040Z,8.78
2023-01-11T09:03:32.838Z,8.80
2023-01-11T09:06:05.692Z,8.76
2023-01-11T09:08:42.678Z,8.71
2023-01-11T09:11:34.156Z,8.62
2023-01-11T09:14:06.990Z,8.61
2023-01-11T09:16:39.726Z,8.62
2023-01-11T09:19:12.359Z,8.62
2023-01-11T09:21:46.311Z,8.61
2023-01-11T09:24:19.224Z,8.56
2023-01-11T09:26:52.312Z,8.56
2023-01-11T09:29:25.101Z,8.46
2023-01-11T09:31:58.095Z,8.58
2023-01-11T09:34:30.686Z,8.56
2023-01-11T09:37:06.650Z,8.27
2023-01-11T09:39:39.903Z,8.32
2023-01-11T09:42:39.624Z,8.37
2023-01-11T09:45:20.343Z,8.46
2023-01-11T09:47:53.156Z,8.54
2023-01-11T09:50:31.502Z,8.37
2023-01-11T09:53:10.743Z,8.39
2023-01-11T09:55:47.303Z,8.34
2023-01-11T09:58:58.375Z,8.42
2023-01-11T10:01:45.601Z,8.39
2023-01-11T10:04:32.795Z,8.43
2023-01-11T10:18:27.904Z,8.84
2023-01-11T10:18:57.959Z,8.91
2023-01-11T10:21:41.880Z,9.02
2023-01-11T10:24:46.219Z,9.01
2023-01-11T10:28:05.987Z,9.14
2023-01-11T10:30:58.683Z,9.12
2023-01-11T10:33:47.501Z,9.28
2023-01-11T10:36:52.178Z,9.16
2023-01-11T10:40:15.200Z,9.16
2023-01-11T10:42:57.139Z,9.30
2023-01-11T10:45:59.354Z,9.36
2023-01-11T10:48:39.419Z,9.44
2023-01-11T10:51:24.879Z,9.38
2023-01-11T10:54:17.890Z,9.32
2023-01-11T10:57:38.682Z,9.31
2023-01-11T11:00:45.554Z,9.36
2023-01-11T11:03:44.701Z,9.58
2023-01-11T11:06:39.112Z,9.36
2023-01-11T11:09:45.210Z,9.43
2023-01-11T11:12:29.576Z,9.42
2023-01-11T11:15:25.995Z,9.53
2023-01-11T11:17:58.622Z,9.51
2023-01-11T11:20:34.513Z,9.47
2023-01-11T11:23:06.987Z,9.56
2023-01-11T11:25:46.248Z,9.58
2023-01-11T11:28:33.919Z,9.52
2023-01-11T11:31:08.203Z,9.63
2023-01-11T11:33:46.148Z,9.85
2023-01-11T11:36:18.832Z,9.82
2023-01-11T11:39:28.962Z,9.85
2023-01-11T11:42:15.070Z,9.94
2023-01-11T11:45:09.645Z,9.91
2023-01-11T11:47:44.114Z,9.77
2023-01-11T11:50:42.100Z,9.71
2023-01-11T11:53:32.523Z,9.93
2023-01-11T11:56:34.742Z,10.07
2023-01-11T11:59:18.509Z,9.93
2023-01-11T12:02:03.552Z,10.08
2023-01-11T12:04:48.373Z,10.35
2023-01-11T12:07:25.743Z,10.25
2023-01-11T12:10:11.328Z,10.28
2023-01-11T12:13:02.548Z,10.20
2023-01-11T12:15:35.385Z,10.05
2023-01-11T12:18:30.572Z,10.00
2023-01-11T12:21:30.346Z,9.95
2023-01-11T12:24:07.061Z,10.13
2023-01-11T12:27:12.899Z,10.24
2023-01-11T12:30:10.665Z,10.46
2023-01-11T12:33:11.205Z,10.19
2023-01-11T12:36:19.311Z,10.30
2023-01-11T12:39:35.206Z,10.29
2023-01-11T12:43:34.433Z,10.14
2023-01-11T12:46:40.486Z,10.13
2023-01-11T12:49:24.104Z,10.03
2023-01-11T12:52:44.948Z,10.10
2023-01-11T12:55:40.710Z,10.11
2023-01-11T12:58:49.978Z,10.13
2023-01-11T13:01:49.288Z,10.17
2023-01-11T13:04:35.771Z,10.19
2023-01-11T13:07:28.230Z,10.01
2023-01-11T13:10:31.434Z,10.15
2023-01-11T13:13:24.146Z,10.22
2023-01-11T13:16:14.272Z,10.29
2023-01-11T13:19:02.049Z,10.19
2023-01-11T13:21:53.291Z,10.36
2023-01-11T13:24:32.860Z,10.46
2023-01-11T13:27:12.696Z,10.28
2023-01-11T13:29:50.460Z,10.36
2023-01-11T13:32:29.727Z,10.29
2023-01-11T13:35:17.059Z,10.30
2023-01-11T13:38:03.967Z,10.43
2023-01-11T13:40:46.972Z,10.48
2023-01-11T13:43:50.510Z,10.34
2023-01-11T13:47:00.430Z,10.48
2023-01-11T13:49:56.723Z,10.68
2023-01-11T13:52:44.671Z,10.58
2023-01-11T13:55:27.982Z,10.79
2023-01-11T13:58:13.839Z,10.68
2023-01-11T14:01:07.351Z,10.61
2023-01-11T14:03:53.923Z,10.74
2023-01-11T14:06:42.576Z,10.97
2023-01-11T14:09:47.828Z,10.67
2023-01-11T14:13:08.146Z,10.45
2023-01-11T14:15:58.943Z,10.58
2023-01-11T14:18:42.364Z,10.55
2023-01-11T14:21:41.724Z,10.56
2023-01-11T14:24:18.523Z,10.74
2023-01-11T14:27:19.642Z,10.85
2023-01-11T14:30:21.172Z,10.50
2023-01-11T14:33:39.185Z,10.72
2023-01-11T14:37:02.702Z,10.77
2023-01-11T14:39:35.104Z,10.81
2023-01-11T14:42:40.648Z,10.76
2023-01-11T14:45:32.614Z,10.70
2023-01-11T14:48:40.379Z,10.48
2023-01-11T14:51:33.163Z,10.23
2023-01-11T14:54:21.325Z,9.98
2023-01-11T14:56:59.014Z,9.91
2023-01-11T14:59:31.472Z,9.98
2023-01-11T15:02:04.180Z,10.05
2023-01-11T15:04:58.174Z,9.82
2023-01-11T15:07:30.651Z,9.93
2023-01-11T15:10:30.092Z,10.09
2023-01-11T15:13:14.830Z,9.90
2023-01-11T15:16:07.051Z,9.98
2023-01-11T15:18:46.325Z,9.83
2023-01-11T15:21:26.329Z,9.61
2023-01-11T15:23:58.989Z,9.65
2023-01-11T15:26:31.528Z,9.65
2023-01-11T15:29:04.190Z,9.57
2023-01-11T15:32:02.523Z,9.41
2023-01-11T15:34:35.001Z,9.52
2023-01-11T15:37:29.764Z,9.63
2023-01-11T15:40:16.795Z,9.58
2023-01-11T15:43:32.948Z,9.43
2023-01-11T15:46:45.479Z,9.53
2023-01-11T15:49:33.291Z,9.59
2023-01-11T15:52:26.425Z,9.38
2023-01-11T15:55:17.127Z,9.30
2023-01-11T15:58:14.093Z,9.52
2023-01-11T16:01:20.833Z,9.47
2023-01-11T16:04:41.084Z,9.29
2023-01-11T16:07:23.381Z,9.21
2023-01-11T16:10:42.423Z,9.19
2023-01-11T16:13:30.175Z,9.08
2023-01-11T16:16:26.905Z,9.05
2023-01-11T16:19:16.547Z,8.92
2023-01-11T16:21:55.327Z,9.13
2023-01-11T16:24:34.520Z,9.09
2023-01-11T16:27:09.138Z,9.07
2023-01-11T16:29:49.710Z,8.93
2023-01-11T16:32:32.747Z,8.86
2023-01-11T16:35:18.487Z,8.76
2023-01-11T16:38:37.208Z,8.68
2023-01-11T16:41:14.814Z,8.70
2023-01-11T16:44:02.188Z,8.48
2023-01-11T16:46:46.891Z,8.42
2023-01-11T16:49:19.777Z,8.59
2023-01-11T16:51:52.915Z,8.48
2023-01-11T16:54:32.019Z,8.51
2023-01-11T16:57:04.571Z,8.44
2023-01-11T16:59:37.107Z,8.56
2023-01-11T17:02:31.758Z,8.44
2023-01-11T17:05:23.707Z,8.45
2023-01-11T17:07:56.326Z,8.48
2023-01-11T17:10:30.049Z,8.53
2023-01-11T17:13:53.040Z,8.31
2023-01-11T17:16:36.152Z,8.51
2023-01-11T17:19:37.970Z,8.59
2023-01-11T17:22:35.962Z,8.62
2023-01-11T17:25:21.110Z,8.62
2023-01-11T17:28:06.413Z,8.53
2023-01-11T17:30:39.123Z,8.46
2023-01-11T17:33:33.168Z,8.44
2023-01-11T17:36:07.223Z,8.39
2023-01-11T17:38:41.855Z,8.37
2023-01-11T17:41:35.468Z,8.22
2023-01-11T17:44:36.565Z,7.92
2023-01-11T17:47:12.990Z,8.24
2023-01-11T17:49:50.421Z,8.10
2023-01-11T17:52:26.045Z,8.03
2023-01-11T17:55:21.829Z,7.98
2023-01-11T17:58:18.973Z,8.10
2023-01-11T18:01:18.100Z,7.94
2023-01-11T18:03:57.841Z,8.09
2023-01-11T18:06:45.086Z,7.89
2023-01-11T18:09:29.465Z,8.12
2023-01-11T18:12:21.871Z,8.21
2023-01-11T18:14:59.446Z,8.19
2023-01-11T18:17:42.243Z,8.29
2023-01-11T18:20:15.022Z,8.17
2023-01-11T18:22:53.322Z,8.26
2023-01-11T18:25:31.825Z,8.19
2023-01-11T18:28:36.389Z,8.36
2023-01-11T18:31:09.021Z,8.33
2023-01-11T18:33:41.781Z,8.29
2023-01-11T18:36:22.939Z,8.41
2023-01-11T18:38:56.144Z,8.42
2023-01-11T18:41:47.435Z,8.44
2023-01-11T18:44:19.932Z,8.56
2023-01-11T18:46:52.441Z,8.59
2023-01-11T18:49:24.972Z,8.68
2023-01-11T18:51:57.463Z,8.73
2023-01-11T18:54:30.011Z,8.87
2023-01-11T18:57:03.108Z,8.84
2023-01-11T18:59:36.017Z,8.88
2023-01-11T19:02:30.444Z,9.02
2023-01-11T19:05:03.070Z,8.95
2023-01-11T19:07:35.624Z,9.00
2023-01-11T19:10:09.438Z,8.80
2023-01-11T19:12:42.433Z,8.80
2023-01-11T19:15:16.077Z,8.87
2023-01-11T19:17:49.099Z,8.91
2023-01-11T19:20:21.629Z,9.11
2023-01-11T19:22:54.351Z,8.91
2023-01-11T19:25:26.879Z,9.03
2023-01-11T19:27:59.471Z,9.01
2023-01-11T19:30:32.436Z,8.74
2023-01-11T19:33:04.971Z,8.86
2023-01-11T19:35:41.928Z,8.75
2023-01-11T19:38:18.003Z,8.88
2023-01-11T19:40:50.794Z,8.80
2023-01-11T19:43:23.339Z,8.93
2023-01-11T19:45:57.442Z,9.03
2023-01-11T19:48:34.821Z,8.92
2023-01-11T19:51:12.411Z,9.12
2023-01-11T19:53:44.935Z,9.03
2023-01-11T19:56:17.494Z,9.05
2023-01-11T19:58:50.052Z,8.96
2023-01-11T20:01:22.628Z,8.90
2023-01-11T20:03:55.333Z,8.95
2023-01-11T20:06:27.878Z,8.81
2023-01-11T20:09:00.495Z,8.68
2023-01-11T20:11:33.073Z,8.57
2023-01-11T20:14:05.595Z,8.66
2023-01-11T20:16:38.264Z,8.52
2023-01-11T20:19:11.517Z,8.71
2023-01-11T20:21:44.399Z,8.45
2023-01-11T20:24:17.348Z,8.31
2023-01-11T20:26:49.987Z,8.19
2023-01-11T20:29:23.245Z,8.38
2023-01-11T20:31:57.898Z,8.41
2023-01-11T20:34:35.972Z,8.36
2023-01-11T20:37:08.632Z,8.41
2023-01-11T20:39:41.256Z,8.30
2023-01-11T20:42:14.104Z,8.33
2023-01-11T20:44:46.675Z,8.17
2023-01-11T20:47:22.584Z,8.28
2023-01-11T20:49:55.136Z,8.20
2023-01-11T20:52:27.804Z,8.25
2023-01-11T20:55:02.615Z,8.21
2023-01-11T20:57:35.349Z,8.28
2023-01-11T21:00:14.733Z,8.18
2023-01-11T21:02:50.685Z,8.28
2023-01-11T21:05:23.401Z,8.38
2023-01-11T21:07:56.136Z,8.15
2023-01-11T21:10:29.200Z,8.14
2023-01-11T21:13:03.924Z,8.22
2023-01-11T21:15:37.288Z,8.22
2023-01-11T21:18:09.877Z,8.30
2023-01-11T21:20:51.781Z,8.16
2023-01-11T21:23:24.512Z,8.24
2023-01-11T21:25:57.347Z,8.30
2023-01-11T21:28:30.127Z,8.46
2023-01-11T21:31:04.348Z,8.30
2023-01-11T21:33:39.176Z,8.37
2023-01-11T21:36:14.497Z,8.35
2023-01-11T21:38:48.134Z,8.29
2023-01-11T21:41:43.840Z,8.43
2023-01-11T21:44:18.013Z,8.35
2023-01-11T21:46:50.721Z,8.46
2023-01-11T21:49:24.355Z,8.33
2023-01-11T21:51:57.225Z,8.42
2023-01-11T21:54:29.796Z,8.56
2023-01-11T21:57:02.484Z,8.45
2023-01-11T21:59:35.866Z,8.33
2023-01-11T22:02:10.925Z,8.33
2023-01-11T22:04:43.562Z,8.33
2023-01-11T22:07:16.137Z,8.30
2023-01-11T22:10:04.066Z,8.22
2023-01-11T22:12:37.725Z,8.21
2023-01-11T22:15:11.199Z,8.04
2023-01-11T22:17:43.815Z,8.10
2023-01-11T22:20:17.641Z,7.86
2023-01-11T22:22:50.412Z,8.04
2023-01-11T22:25:23.013Z,7.78
2023-01-11T22:27:55.564Z,7.80
2023-01-11T22:30:28.065Z,7.67
2023-01-11T22:33:00.645Z,7.75
2023-01-11T22:35:33.627Z,7.77
2023-01-11T22:38:06.587Z,7.67
2023-01-11T22:40:39.237Z,7.74
2023-01-11T22:43:11.792Z,7.84
2023-01-11T22:45:44.362Z,7.79
2023-01-11T22:48:17.162Z,7.75
2023-01-11T22:50:49.748Z,7.79
2023-01-11T22:53:22.293Z,7.71
2023-01-11T22:55:54.771Z,7.83
2023-01-11T22:58:30.365Z,7.61
2023-01-11T23:01:21.631Z,7.85
2023-01-11T23:03:58.812Z,7.65
2023-01-11T23:06:39.067Z,7.68
2023-01-11T23:09:16.591Z,7.63
2023-01-11T23:12:08.115Z,7.83
2023-01-11T23:14:40.728Z,7.85
2023-01-11T23:17:13.623Z,7.75
2023-01-11T23:19:46.252Z,7.62
2023-01-11T23:22:18.865Z,7.70
2023-01-11T23:24:51.646Z,7.73
2023-01-11T23:27:24.211Z,7.89
2023-01-11T23:29:56.941Z,7.80
2023-01-11T23:32:29.731Z,7.76
2023-01-11T23:35:02.937Z,7.67
2023-01-11T23:37:35.800Z,7.64
2023-01-11T23:40:10.135Z,7.76
2023-01-11T23:42:42.980Z,7.79
2023-01-11T23:45:15.617Z,7.92
2023-01-11T23:47:49.313Z,7.84
2023-01-11T23:50:21.924Z,7.82
2023-01-11T23:52:54.688Z,7.90
2023-01-11T23:55:27.470Z,7.82
2023-01-11T23:58:09.048Z,7.80
